sensor_id;sensor_type;location;lat;lon;timestamp;pressure;altitude;pressure_sealevel;temperature;humidity
61484;BME280;47349;55.640;37.692;2023-04-28T00:00:18;98690.19;;;14.09;68.68
61484;BME280;47349;55.640;37.692;2023-04-28T00:03:04;98663.84;;;13.93;68.89
61484;BME280;47349;55.640;37.692;2023-04-28T00:05:45;98674.44;;;13.87;69.34
61484;BME280;47349;55.640;37.692;2023-04-28T00:08:27;98669.50;;;13.84;69.70
61484;BME280;47349;55.640;37.692;2023-04-28T00:10:55;98679.81;;;13.87;70.45
61484;BME280;47349;55.640;37.692;2023-04-28T00:13:26;98678.66;;;13.83;70.69
61484;BME280;47349;55.640;37.692;2023-04-28T00:16:07;98685.28;;;13.81;70.50
61484;BME280;47349;55.640;37.692;2023-04-28T00:18:39;98682.94;;;13.66;71.05
61484;BME280;47349;55.640;37.692;2023-04-28T00:21:20;98700.53;;;13.69;71.84
61484;BME280;47349;55.640;37.692;2023-04-28T00:24:10;98677.53;;;13.66;71.68
61484;BME280;47349;55.640;37.692;2023-04-28T00:26:51;98674.75;;;13.54;71.83
61484;BME280;47349;55.640;37.692;2023-04-28T00:29:32;98673.47;;;13.57;71.73
61484;BME280;47349;55.640;37.692;2023-04-28T00:32:15;98663.47;;;13.64;71.83
61484;BME280;47349;55.640;37.692;2023-04-28T00:34:43;98656.09;;;13.53;71.95
61484;BME280;47349;55.640;37.692;2023-04-28T00:37:25;98641.22;;;13.50;72.12
61484;BME280;47349;55.640;37.692;2023-04-28T00:40:06;98682.03;;;13.72;71.76
61484;BME280;47349;55.640;37.692;2023-04-28T00:42:48;98671.88;;;13.74;71.49
61484;BME280;47349;55.640;37.692;2023-04-28T00:45:16;98648.19;;;13.58;71.66
61484;BME280;47349;55.640;37.692;2023-04-28T00:47:58;98657.47;;;13.62;71.88
61484;BME280;47349;55.640;37.692;2023-04-28T00:50:39;98669.47;;;13.66;72.07
61484;BME280;47349;55.640;37.692;2023-04-28T00:53:07;98642.22;;;13.56;71.75
61484;BME280;47349;55.640;37.692;2023-04-28T00:55:49;98646.00;;;13.48;72.43
61484;BME280;47349;55.640;37.692;2023-04-28T00:58:20;98665.72;;;13.42;73.02
61484;BME280;47349;55.640;37.692;2023-04-28T01:01:05;98644.38;;;13.16;73.39
61484;BME280;47349;55.640;37.692;2023-04-28T01:04:05;98668.66;;;13.34;73.88
61484;BME280;47349;55.640;37.692;2023-04-28T01:06:42;98677.53;;;13.41;74.15
61484;BME280;47349;55.640;37.692;2023-04-28T01:09:25;98643.56;;;13.15;74.02
61484;BME280;47349;55.640;37.692;2023-04-28T01:15:14;98665.91;;;13.16;74.64
61484;BME280;47349;55.640;37.692;2023-04-28T01:18:14;98677.84;;;13.26;75.26
61484;BME280;47349;55.640;37.692;2023-04-28T01:23:50;98657.66;;;13.10;74.49
61484;BME280;47349;55.640;37.692;2023-04-28T01:26:31;98681.81;;;13.17;75.27
61484;BME280;47349;55.640;37.692;2023-04-28T01:29:03;98671.59;;;12.94;75.45
61484;BME280;47349;55.640;37.692;2023-04-28T01:31:31;98685.50;;;12.91;75.74
61484;BME280;47349;55.640;37.692;2023-04-28T01:34:17;98697.91;;;12.85;76.55
61484;BME280;47349;55.640;37.692;2023-04-28T01:36:44;98674.44;;;12.61;76.84
61484;BME280;47349;55.640;37.692;2023-04-28T01:41:57;98688.13;;;12.59;76.89
61484;BME280;47349;55.640;37.692;2023-04-28T01:44:25;98667.47;;;12.47;76.70
61484;BME280;47349;55.640;37.692;2023-04-28T01:47:10;98678.53;;;12.70;76.80
61484;BME280;47349;55.640;37.692;2023-04-28T01:49:37;98658.75;;;12.58;76.01
61484;BME280;47349;55.640;37.692;2023-04-28T01:52:07;98683.72;;;12.72;76.40
61484;BME280;47349;55.640;37.692;2023-04-28T01:54:35;98684.72;;;12.77;76.20
61484;BME280;47349;55.640;37.692;2023-04-28T01:57:21;98681.59;;;12.80;76.62
61484;BME280;47349;55.640;37.692;2023-04-28T01:59:49;98674.94;;;12.90;76.26
61484;BME280;47349;55.640;37.692;2023-04-28T02:02:36;98661.72;;;12.88;75.58
61484;BME280;47349;55.640;37.692;2023-04-28T02:05:04;98647.44;;;12.88;75.36
61484;BME280;47349;55.640;37.692;2023-04-28T02:07:31;98644.13;;;12.85;75.72
61484;BME280;47349;55.640;37.692;2023-04-28T02:12:45;98680.25;;;13.03;75.56
61484;BME280;47349;55.640;37.692;2023-04-28T02:15:13;98634.00;;;12.88;75.24
61484;BME280;47349;55.640;37.692;2023-04-28T02:18:17;98677.47;;;13.16;75.35
61484;BME280;47349;55.640;37.692;2023-04-28T02:23:48;98673.63;;;13.05;75.98
61484;BME280;47349;55.640;37.692;2023-04-28T02:26:16;98641.41;;;12.92;75.82
61484;BME280;47349;55.640;37.692;2023-04-28T02:28:43;98664.09;;;13.03;75.83
61484;BME280;47349;55.640;37.692;2023-04-28T02:31:11;98648.09;;;12.83;76.14
61484;BME280;47349;55.640;37.692;2023-04-28T02:33:40;98683.81;;;12.97;76.41
61484;BME280;47349;55.640;37.692;2023-04-28T02:36:08;98668.16;;;12.80;76.06
61484;BME280;47349;55.640;37.692;2023-04-28T02:38:54;98699.59;;;12.86;76.60
61484;BME280;47349;55.640;37.692;2023-04-28T02:41:21;98667.78;;;12.70;76.53
61484;BME280;47349;55.640;37.692;2023-04-28T02:43:49;98681.34;;;12.89;76.54
61484;BME280;47349;55.640;37.692;2023-04-28T02:46:16;98666.09;;;12.82;76.25
61484;BME280;47349;55.640;37.692;2023-04-28T02:48:43;98683.00;;;12.90;76.15
61484;BME280;47349;55.640;37.692;2023-04-28T02:51:11;98686.69;;;12.95;75.85
61484;BME280;47349;55.640;37.692;2023-04-28T02:53:58;98682.41;;;12.81;76.29
61484;BME280;47349;55.640;37.692;2023-04-28T02:56:25;98700.34;;;12.94;76.45
61484;BME280;47349;55.640;37.692;2023-04-28T02:58:52;98689.19;;;12.97;76.51
61484;BME280;47349;55.640;37.692;2023-04-28T03:01:19;98677.97;;;13.00;76.55
61484;BME280;47349;55.640;37.692;2023-04-28T03:03:47;98691.78;;;13.10;76.69
61484;BME280;47349;55.640;37.692;2023-04-28T03:06:14;98689.72;;;13.12;76.19
61484;BME280;47349;55.640;37.692;2023-04-28T03:09:00;98697.38;;;13.15;76.60
61484;BME280;47349;55.640;37.692;2023-04-28T03:11:27;98692.81;;;13.09;76.69
61484;BME280;47349;55.640;37.692;2023-04-28T03:13:54;98699.47;;;13.06;76.38
61484;BME280;47349;55.640;37.692;2023-04-28T03:16:22;98699.06;;;13.03;76.66
61484;BME280;47349;55.640;37.692;2023-04-28T03:18:49;98702.88;;;12.89;77.08
61484;BME280;47349;55.640;37.692;2023-04-28T03:21:16;98705.50;;;12.95;77.76
61484;BME280;47349;55.640;37.692;2023-04-28T03:23:44;98712.16;;;12.93;77.70
61484;BME280;47349;55.640;37.692;2023-04-28T03:26:11;98700.34;;;12.94;77.79
61484;BME280;47349;55.640;37.692;2023-04-28T03:28:38;98716.25;;;13.02;77.73
61484;BME280;47349;55.640;37.692;2023-04-28T03:31:05;98705.75;;;12.94;77.40
61484;BME280;47349;55.640;37.692;2023-04-28T03:33:32;98708.66;;;12.92;77.73
61484;BME280;47349;55.640;37.692;2023-04-28T03:36:00;98723.88;;;13.05;77.45
61484;BME280;47349;55.640;37.692;2023-04-28T03:38:28;98699.59;;;12.86;77.58
61484;BME280;47349;55.640;37.692;2023-04-28T03:40:55;98714.00;;;12.99;77.69
61484;BME280;47349;55.640;37.692;2023-04-28T03:43:41;98710.25;;;13.00;77.95
61484;BME280;47349;55.640;37.692;2023-04-28T03:46:28;98730.94;;;13.06;77.49
61484;BME280;47349;55.640;37.692;2023-04-28T03:48:56;98703.06;;;12.94;77.51
61484;BME280;47349;55.640;37.692;2023-04-28T03:51:23;98700.97;;;12.96;77.29
61484;BME280;47349;55.640;37.692;2023-04-28T03:53:50;98727.97;;;13.14;77.54
61484;BME280;47349;55.640;37.692;2023-04-28T03:56:18;98710.22;;;13.06;77.49
61484;BME280;47349;55.640;37.692;2023-04-28T03:58:45;98730.22;;;13.24;77.39
61484;BME280;47349;55.640;37.692;2023-04-28T04:01:12;98703.09;;;13.19;77.10
61484;BME280;47349;55.640;37.692;2023-04-28T04:03:39;98705.59;;;13.20;76.60
61484;BME280;47349;55.640;37.692;2023-04-28T04:06:07;98720.28;;;13.24;76.73
61484;BME280;47349;55.640;37.692;2023-04-28T04:08:34;98735.06;;;13.47;76.16
61484;BME280;47349;55.640;37.692;2023-04-28T04:11:01;98716.09;;;13.35;75.71
61484;BME280;47349;55.640;37.692;2023-04-28T04:13:29;98714.56;;;13.46;75.60
61484;BME280;47349;55.640;37.692;2023-04-28T04:15:56;98727.53;;;13.55;75.80
61484;BME280;47349;55.640;37.692;2023-04-28T04:18:24;98713.69;;;13.52;76.20
61484;BME280;47349;55.640;37.692;2023-04-28T04:21:17;98705.03;;;13.43;75.86
61484;BME280;47349;55.640;37.692;2023-04-28T04:23:45;98730.88;;;13.51;76.20
61484;BME280;47349;55.640;37.692;2023-04-28T04:26:12;98736.44;;;13.56;76.39
61484;BME280;47349;55.640;37.692;2023-04-28T04:28:39;98720.81;;;13.40;76.38
61484;BME280;47349;55.640;37.692;2023-04-28T04:31:08;98734.00;;;13.48;76.52
61484;BME280;47349;55.640;37.692;2023-04-28T04:33:53;98735.88;;;13.47;77.05
61484;BME280;47349;55.640;37.692;2023-04-28T04:36:20;98742.94;;;13.42;77.34
61484;BME280;47349;55.640;37.692;2023-04-28T04:38:49;98743.19;;;13.40;77.50
61484;BME280;47349;55.640;37.692;2023-04-28T04:41:21;98727.75;;;13.22;78.20
61484;BME280;47349;55.640;37.692;2023-04-28T04:44:07;98739.28;;;13.36;78.15
61484;BME280;47349;55.640;37.692;2023-04-28T04:46:40;98722.59;;;13.14;78.46
61484;BME280;47349;55.640;37.692;2023-04-28T04:49:21;98757.28;;;13.35;78.61
61484;BME280;47349;55.640;37.692;2023-04-28T04:55:04;98743.09;;;13.15;78.78
61484;BME280;47349;55.640;37.692;2023-04-28T04:58:01;98733.81;;;13.04;78.91
61484;BME280;47349;55.640;37.692;2023-04-28T05:01:02;98746.59;;;13.22;78.42
61484;BME280;47349;55.640;37.692;2023-04-28T05:03:44;98740.09;;;13.36;78.67
61484;BME280;47349;55.640;37.692;2023-04-28T05:06:35;98726.88;;;13.28;78.51
61484;BME280;47349;55.640;37.692;2023-04-28T05:09:33;98725.19;;;13.34;78.46
61484;BME280;47349;55.640;37.692;2023-04-28T05:12:16;98748.69;;;13.52;78.23
61484;BME280;47349;55.640;37.692;2023-04-28T05:15:20;98784.19;;;13.67;78.90
61484;BME280;47349;55.640;37.692;2023-04-28T05:18:21;98745.25;;;13.38;78.91
61484;BME280;47349;55.640;37.692;2023-04-28T05:20:52;98756.53;;;13.53;79.12
61484;BME280;47349;55.640;37.692;2023-04-28T05:23:35;98759.88;;;13.49;79.66
61484;BME280;47349;55.640;37.692;2023-04-28T05:26:17;98735.22;;;13.52;79.25
61484;BME280;47349;55.640;37.692;2023-04-28T05:29:05;98752.09;;;13.66;79.29
61484;BME280;47349;55.640;37.692;2023-04-28T05:31:36;98776.34;;;13.91;78.98
61484;BME280;47349;55.640;37.692;2023-04-28T05:34:24;98752.38;;;13.82;78.36
61484;BME280;47349;55.640;37.692;2023-04-28T05:37:10;98777.75;;;14.00;78.43
61484;BME280;47349;55.640;37.692;2023-04-28T05:39:54;98725.84;;;13.86;78.74
61484;BME280;47349;55.640;37.692;2023-04-28T05:42:24;98745.56;;;14.05;78.47
61484;BME280;47349;55.640;37.692;2023-04-28T05:44:54;98766.44;;;14.34;77.67
61484;BME280;47349;55.640;37.692;2023-04-28T05:47:36;98757.19;;;14.49;77.26
61484;BME280;47349;55.640;37.692;2023-04-28T05:50:18;98752.06;;;14.65;75.96
61484;BME280;47349;55.640;37.692;2023-04-28T05:52:55;98768.44;;;14.82;74.88
61484;BME280;47349;55.640;37.692;2023-04-28T05:55:24;98767.91;;;14.92;74.89
61484;BME280;47349;55.640;37.692;2023-04-28T05:58:06;98763.94;;;14.95;74.87
61484;BME280;47349;55.640;37.692;2023-04-28T06:00:36;98785.22;;;15.03;74.73
61484;BME280;47349;55.640;37.692;2023-04-28T06:03:06;98773.06;;;15.12;74.89
61484;BME280;47349;55.640;37.692;2023-04-28T06:05:38;98778.53;;;15.24;74.68
61484;BME280;47349;55.640;37.692;2023-04-28T06:08:06;98777.16;;;15.33;74.14
61484;BME280;47349;55.640;37.692;2023-04-28T06:10:36;98750.19;;;15.14;74.19
61484;BME280;47349;55.640;37.692;2023-04-28T06:13:23;98749.50;;;15.19;73.82
61484;BME280;47349;55.640;37.692;2023-04-28T06:15:51;98739.91;;;15.23;73.82
61484;BME280;47349;55.640;37.692;2023-04-28T06:18:19;98758.81;;;15.23;73.93
61484;BME280;47349;55.640;37.692;2023-04-28T06:20:47;98749.66;;;15.24;73.98
61484;BME280;47349;55.640;37.692;2023-04-28T06:23:15;98736.31;;;15.11;73.88
61484;BME280;47349;55.640;37.692;2023-04-28T06:25:50;98757.69;;;15.12;74.87
61484;BME280;47349;55.640;37.692;2023-04-28T06:28:26;98773.00;;;15.19;75.63
61484;BME280;47349;55.640;37.692;2023-04-28T06:31:06;98772.13;;;15.18;75.93
61484;BME280;47349;55.640;37.692;2023-04-28T06:33:38;98757.34;;;15.09;75.93
61484;BME280;47349;55.640;37.692;2023-04-28T06:36:09;98768.69;;;15.29;75.97
61484;BME280;47349;55.640;37.692;2023-04-28T06:39:12;98779.44;;;15.48;75.50
61484;BME280;47349;55.640;37.692;2023-04-28T06:41:39;98773.44;;;15.46;74.68
61484;BME280;47349;55.640;37.692;2023-04-28T06:44:10;98777.00;;;15.58;74.98
61484;BME280;47349;55.640;37.692;2023-04-28T06:46:41;98763.25;;;15.59;75.90
61484;BME280;47349;55.640;37.692;2023-04-28T06:49:13;98767.09;;;15.52;75.84
61484;BME280;47349;55.640;37.692;2023-04-28T06:51:43;98775.69;;;15.49;76.47
61484;BME280;47349;55.640;37.692;2023-04-28T06:54:24;98776.13;;;15.46;78.78
61484;BME280;47349;55.640;37.692;2023-04-28T06:56:52;98790.81;;;15.50;78.59
61484;BME280;47349;55.640;37.692;2023-04-28T06:59:23;98781.72;;;15.32;81.32
61484;BME280;47349;55.640;37.692;2023-04-28T07:01:55;98757.78;;;15.06;82.26
61484;BME280;47349;55.640;37.692;2023-04-28T07:04:37;98766.25;;;15.09;83.01
61484;BME280;47349;55.640;37.692;2023-04-28T07:07:04;98798.78;;;15.14;83.99
61484;BME280;47349;55.640;37.692;2023-04-28T07:09:49;98790.97;;;15.06;83.57
61484;BME280;47349;55.640;37.692;2023-04-28T07:12:21;98778.16;;;15.02;83.53
61484;BME280;47349;55.640;37.692;2023-04-28T07:15:04;98777.59;;;15.00;84.73
61484;BME280;47349;55.640;37.692;2023-04-28T07:17:32;98786.25;;;15.02;85.22
61484;BME280;47349;55.640;37.692;2023-04-28T07:20:00;98778.16;;;15.02;84.15
61484;BME280;47349;55.640;37.692;2023-04-28T07:22:29;98769.00;;;15.03;84.26
61484;BME280;47349;55.640;37.692;2023-04-28T07:25:01;98771.84;;;15.08;83.89
61484;BME280;47349;55.640;37.692;2023-04-28T07:27:29;98769.63;;;15.05;84.87
61484;BME280;47349;55.640;37.692;2023-04-28T07:29:57;98791.34;;;15.28;84.76
61484;BME280;47349;55.640;37.692;2023-04-28T07:32:37;98784.94;;;15.23;85.05
61484;BME280;47349;55.640;37.692;2023-04-28T07:35:18;98803.09;;;15.34;85.42
61484;BME280;47349;55.640;37.692;2023-04-28T07:37:46;98787.50;;;15.17;86.40
61484;BME280;47349;55.640;37.692;2023-04-28T07:40:27;98793.91;;;15.23;86.15
61484;BME280;47349;55.640;37.692;2023-04-28T07:46:00;98797.19;;;15.55;86.54
61484;BME280;47349;55.640;37.692;2023-04-28T07:49:00;98771.91;;;15.68;87.12
61484;BME280;47349;55.640;37.692;2023-04-28T07:51:32;98798.03;;;16.09;83.50
61484;BME280;47349;55.640;37.692;2023-04-28T07:54:01;98769.81;;;15.93;83.83
61484;BME280;47349;55.640;37.692;2023-04-28T07:56:35;98764.78;;;15.97;81.73
61484;BME280;47349;55.640;37.692;2023-04-28T07:59:12;98787.56;;;15.89;82.54
61484;BME280;47349;55.640;37.692;2023-04-28T08:01:40;98806.03;;;15.92;82.67
61484;BME280;47349;55.640;37.692;2023-04-28T08:04:09;98780.28;;;15.60;82.16
61484;BME280;47349;55.640;37.692;2023-04-28T08:06:39;98798.69;;;15.51;83.42
61484;BME280;47349;55.640;37.692;2023-04-28T08:09:25;98790.94;;;15.43;85.04
61484;BME280;47349;55.640;37.692;2023-04-28T08:12:06;98789.81;;;15.32;87.24
61484;BME280;47349;55.640;37.692;2023-04-28T08:14:37;98793.53;;;15.20;88.52
61484;BME280;47349;55.640;37.692;2023-04-28T08:17:18;98806.78;;;15.21;90.24
61484;BME280;47349;55.640;37.692;2023-04-28T08:20:00;98782.59;;;14.96;90.13
61484;BME280;47349;55.640;37.692;2023-04-28T08:22:29;98782.84;;;14.76;91.72
61484;BME280;47349;55.640;37.692;2023-04-28T08:25:02;98809.16;;;14.99;91.69
61484;BME280;47349;55.640;37.692;2023-04-28T08:27:43;98767.19;;;14.85;90.88
61484;BME280;47349;55.640;37.692;2023-04-28T08:30:29;98773.31;;;14.92;91.05
61484;BME280;47349;55.640;37.692;2023-04-28T08:33:10;98808.38;;;15.10;91.32
61484;BME280;47349;55.640;37.692;2023-04-28T08:35:54;98767.38;;;14.83;90.61
61484;BME280;47349;55.640;37.692;2023-04-28T08:38:37;98787.19;;;14.96;90.17
61484;BME280;47349;55.640;37.692;2023-04-28T08:41:18;98797.72;;;14.97;91.53
61484;BME280;47349;55.640;37.692;2023-04-28T08:43:58;98786.28;;;14.83;91.52
61484;BME280;47349;55.640;37.692;2023-04-28T08:46:41;98807.25;;;15.00;90.76
61484;BME280;47349;55.640;37.692;2023-04-28T08:49:15;98794.22;;;14.97;90.51
61484;BME280;47349;55.640;37.692;2023-04-28T08:51:50;98812.13;;;15.09;89.98
61484;BME280;47349;55.640;37.692;2023-04-28T08:54:35;98805.59;;;14.99;91.25
61484;BME280;47349;55.640;37.692;2023-04-28T08:57:08;98815.94;;;15.02;91.78
61484;BME280;47349;55.640;37.692;2023-04-28T08:59:50;98783.38;;;14.85;91.64
61484;BME280;47349;55.640;37.692;2023-04-28T09:02:32;98787.75;;;14.98;93.54
61484;BME280;47349;55.640;37.692;2023-04-28T09:05:16;98793.91;;;15.05;91.89
61484;BME280;47349;55.640;37.692;2023-04-28T09:08:01;98799.31;;;15.23;92.48
61484;BME280;47349;55.640;37.692;2023-04-28T09:10:42;98805.69;;;15.40;92.39
61484;BME280;47349;55.640;37.692;2023-04-28T09:13:24;98783.41;;;15.15;91.55
61484;BME280;47349;55.640;37.692;2023-04-28T09:16:06;98813.47;;;15.19;92.99
61484;BME280;47349;55.640;37.692;2023-04-28T09:18:57;98812.97;;;15.10;95.30
61484;BME280;47349;55.640;37.692;2023-04-28T09:21:55;98789.59;;;14.85;96.02
61484;BME280;47349;55.640;37.692;2023-04-28T09:24:37;98813.78;;;15.10;95.98
61484;BME280;47349;55.640;37.692;2023-04-28T09:27:27;98804.53;;;15.18;96.41
61484;BME280;47349;55.640;37.692;2023-04-28T09:30:08;98776.38;;;15.14;95.36
61484;BME280;47349;55.640;37.692;2023-04-28T09:33:03;98814.00;;;15.57;92.55
61484;BME280;47349;55.640;37.692;2023-04-28T09:35:48;98780.25;;;15.66;91.65
61484;BME280;47349;55.640;37.692;2023-04-28T09:38:41;98788.16;;;15.91;89.98
61484;BME280;47349;55.640;37.692;2023-04-28T09:41:38;98791.69;;;16.04;89.93
61484;BME280;47349;55.640;37.692;2023-04-28T09:44:20;98793.00;;;16.01;88.96
61484;BME280;47349;55.640;37.692;2023-04-28T09:47:20;98783.09;;;15.83;89.79
61484;BME280;47349;55.640;37.692;2023-04-28T09:50:04;98792.25;;;15.82;88.94
61484;BME280;47349;55.640;37.692;2023-04-28T09:52:55;98793.19;;;15.88;88.97
61484;BME280;47349;55.640;37.692;2023-04-28T09:55:26;98804.72;;;15.95;89.36
61484;BME280;47349;55.640;37.692;2023-04-28T09:58:10;98790.81;;;15.80;88.22
61484;BME280;47349;55.640;37.692;2023-04-28T10:00:58;98808.72;;;15.92;88.32
61484;BME280;47349;55.640;37.692;2023-04-28T10:03:40;98806.03;;;15.92;87.78
61484;BME280;47349;55.640;37.692;2023-04-28T10:06:22;98797.31;;;15.90;87.97
61484;BME280;47349;55.640;37.692;2023-04-28T10:08:51;98788.63;;;15.88;87.63
61484;BME280;47349;55.640;37.692;2023-04-28T10:11:18;98815.66;;;16.00;87.83
61484;BME280;47349;55.640;37.692;2023-04-28T10:13:49;98796.84;;;15.93;86.04
61484;BME280;47349;55.640;37.692;2023-04-28T10:16:32;98829.91;;;16.07;86.09
61484;BME280;47349;55.640;37.692;2023-04-28T10:19:13;98798.72;;;15.93;86.36
61484;BME280;47349;55.640;37.692;2023-04-28T10:22:04;98804.97;;;15.93;86.66
61484;BME280;47349;55.640;37.692;2023-04-28T10:27:52;98822.59;;;15.96;87.84
61484;BME280;47349;55.640;37.692;2023-04-28T10:30:23;98802.13;;;15.88;88.24
61484;BME280;47349;55.640;37.692;2023-04-28T10:35:53;98812.75;;;16.13;85.79
61484;BME280;47349;55.640;37.692;2023-04-28T10:38:24;98822.53;;;16.38;85.61
61484;BME280;47349;55.640;37.692;2023-04-28T10:41:31;98820.28;;;16.58;82.53
61484;BME280;47349;55.640;37.692;2023-04-28T10:50:33;98801.50;;;16.75;80.62
61484;BME280;47349;55.640;37.692;2023-04-28T10:53:18;98807.03;;;16.80;81.57
61484;BME280;47349;55.640;37.692;2023-04-28T10:56:24;98792.88;;;16.66;81.33
61484;BME280;47349;55.640;37.692;2023-04-28T10:59:33;98804.56;;;16.79;80.96
61484;BME280;47349;55.640;37.692;2023-04-28T11:02:36;98808.06;;;16.67;80.42
61484;BME280;47349;55.640;37.692;2023-04-28T11:05:19;98815.00;;;16.52;81.06
61484;BME280;47349;55.640;37.692;2023-04-28T11:08:31;98814.09;;;16.34;79.96
61484;BME280;47349;55.640;37.692;2023-04-28T11:11:16;98806.53;;;16.13;80.49
61484;BME280;47349;55.640;37.692;2023-04-28T11:13:47;98819.53;;;16.04;82.24
61484;BME280;47349;55.640;37.692;2023-04-28T11:16:18;98804.25;;;15.86;82.70
61484;BME280;47349;55.640;37.692;2023-04-28T11:18:51;98832.03;;;15.75;83.34
61484;BME280;47349;55.640;37.692;2023-04-28T11:21:33;98821.97;;;15.04;84.81
61484;BME280;47349;55.640;37.692;2023-04-28T11:24:27;98815.47;;;14.50;90.24
61484;BME280;47349;55.640;37.692;2023-04-28T11:27:38;98830.81;;;14.24;98.92
61484;BME280;47349;55.640;37.692;2023-04-28T11:30:21;98832.84;;;14.04;100.00
61484;BME280;47349;55.640;37.692;2023-04-28T11:33:04;98796.63;;;13.68;100.00
61484;BME280;47349;55.640;37.692;2023-04-28T11:36:09;98809.22;;;13.74;100.00
61484;BME280;47349;55.640;37.692;2023-04-28T11:39:16;98794.53;;;13.70;100.00
61484;BME280;47349;55.640;37.692;2023-04-28T11:42:09;98835.06;;;14.07;100.00
61484;BME280;47349;55.640;37.692;2023-04-28T11:47:28;98814.38;;;14.07;100.00
61484;BME280;47349;55.640;37.692;2023-04-28T11:51:28;98790.31;;;14.06;100.00
61484;BME280;47349;55.640;37.692;2023-04-28T12:01:28;98811.38;;;14.40;99.86
61484;BME280;47349;55.640;37.692;2023-04-28T12:05:56;98801.13;;;14.56;100.00
61484;BME280;47349;55.640;37.692;2023-04-28T12:35:58;98807.84;;;15.80;93.62
61484;BME280;47349;55.640;37.692;2023-04-28T12:38:47;98818.31;;;15.77;94.17
61484;BME280;47349;55.640;37.692;2023-04-28T12:41:29;98782.50;;;15.51;93.19
61484;BME280;47349;55.640;37.692;2023-04-28T12:44:10;98785.09;;;15.28;91.71
61484;BME280;47349;55.640;37.692;2023-04-28T12:46:51;98797.63;;;15.22;95.13
61484;BME280;47349;55.640;37.692;2023-04-28T12:49:21;98787.47;;;14.87;95.57
61484;BME280;47349;55.640;37.692;2023-04-28T12:51:55;98797.72;;;14.79;92.54
61484;BME280;47349;55.640;37.692;2023-04-28T12:54:59;98787.41;;;14.32;94.55
61484;BME280;47349;55.640;37.692;2023-04-28T12:57:43;98808.44;;;14.24;94.48
61484;BME280;47349;55.640;37.692;2023-04-28T13:00:27;98821.06;;;14.23;95.19
61484;BME280;47349;55.640;37.692;2023-04-28T13:03:12;98798.69;;;13.98;96.62
61484;BME280;47349;55.640;37.692;2023-04-28T13:05:57;98799.56;;;13.92;95.60
61484;BME280;47349;55.640;37.692;2023-04-28T13:09:12;98820.94;;;14.11;95.71
61484;BME280;47349;55.640;37.692;2023-04-28T13:16:54;98771.75;;;13.41;97.25
61484;BME280;47349;55.640;37.692;2023-04-28T13:20:45;98806.00;;;13.59;98.77
61484;BME280;47349;55.640;37.692;2023-04-28T13:25:09;98789.31;;;13.44;98.02
61484;BME280;47349;55.640;37.692;2023-04-28T13:50:10;98803.16;;;12.96;97.24
61484;BME280;47349;55.640;37.692;2023-04-28T14:02:54;98851.06;;;12.54;99.18
61484;BME280;47349;55.640;37.692;2023-04-28T14:05:37;98848.16;;;12.42;100.00
61484;BME280;47349;55.640;37.692;2023-04-28T14:08:16;98872.34;;;12.22;100.00
61484;BME280;47349;55.640;37.692;2023-04-28T14:10:46;98867.22;;;12.14;100.00
61484;BME280;47349;55.640;37.692;2023-04-28T14:13:28;98874.63;;;12.12;100.00
61484;BME280;47349;55.640;37.692;2023-04-28T14:16:00;98865.50;;;11.87;100.00
61484;BME280;47349;55.640;37.692;2023-04-28T14:18:41;98890.31;;;11.95;100.00
61484;BME280;47349;55.640;37.692;2023-04-28T14:21:08;98887.78;;;11.80;100.00
61484;BME280;47349;55.640;37.692;2023-04-28T14:23:36;98896.09;;;11.92;100.00
61484;BME280;47349;55.640;37.692;2023-04-28T14:26:08;98871.69;;;11.80;100.00
61484;BME280;47349;55.640;37.692;2023-04-28T14:28:39;98871.25;;;11.77;100.00
61484;BME280;47349;55.640;37.692;2023-04-28T14:31:21;98892.75;;;11.83;100.00
61484;BME280;47349;55.640;37.692;2023-04-28T14:34:02;98890.84;;;11.71;99.51
61484;BME280;47349;55.640;37.692;2023-04-28T14:36:45;98881.44;;;11.33;100.00
61484;BME280;47349;55.640;37.692;2023-04-28T14:39:14;98888.88;;;11.31;100.00
61484;BME280;47349;55.640;37.692;2023-04-28T14:41:42;98876.22;;;11.19;100.00
61484;BME280;47349;55.640;37.692;2023-04-28T14:44:10;98890.50;;;11.32;100.00
61484;BME280;47349;55.640;37.692;2023-04-28T14:46:48;98884.03;;;11.20;100.00
61484;BME280;47349;55.640;37.692;2023-04-28T14:49:29;98867.03;;;11.00;100.00
61484;BME280;47349;55.640;37.692;2023-04-28T14:52:10;98870.09;;;10.97;100.00
61484;BME280;47349;55.640;37.692;2023-04-28T14:54:39;98874.38;;;10.50;100.00
61484;BME280;47349;55.640;37.692;2023-04-28T14:57:07;98894.69;;;10.72;100.00
61484;BME280;47349;55.640;37.692;2023-04-28T14:59:37;98884.28;;;10.56;100.00
61484;BME280;47349;55.640;37.692;2023-04-28T15:02:08;98903.47;;;10.88;100.00
61484;BME280;47349;55.640;37.692;2023-04-28T15:04:49;98899.41;;;10.98;100.00
61484;BME280;47349;55.640;37.692;2023-04-28T15:07:20;98904.50;;;10.87;100.00
61484;BME280;47349;55.640;37.692;2023-04-28T15:09:59;98897.31;;;10.59;100.00
61484;BME280;47349;55.640;37.692;2023-04-28T15:12:40;98890.03;;;10.53;100.00
61484;BME280;47349;55.640;37.692;2023-04-28T15:15:08;98915.19;;;10.52;100.00
61484;BME280;47349;55.640;37.692;2023-04-28T15:17:36;98925.84;;;10.45;100.00
61484;BME280;47349;55.640;37.692;2023-04-28T15:20:05;98915.78;;;10.26;100.00
61484;BME280;47349;55.640;37.692;2023-04-28T15:22:35;98935.50;;;10.40;100.00
61484;BME280;47349;55.640;37.692;2023-04-28T15:25:03;98895.00;;;10.28;100.00
61484;BME280;47349;55.640;37.692;2023-04-28T15:27:31;98903.69;;;10.30;100.00
61484;BME280;47349;55.640;37.692;2023-04-28T15:29:59;98952.69;;;10.52;100.00
61484;BME280;47349;55.640;37.692;2023-04-28T15:32:36;98928.59;;;10.31;100.00
61484;BME280;47349;55.640;37.692;2023-04-28T15:35:05;98949.22;;;10.30;100.00